Mina, Nevada
Current Conditions -  °F | °C
As of 12:56 PM on Tuesday 21 Oct 2014 (Local Time) from KTPH Reporting Station
Clear Clear  
Wind Chill: 64°   Ceiling: Unl
Heat Index: 64°   Visibility: 10mi
Dew Point: 13°   Wind: 17mph
Humidity: 14%   Direction: 340°NNW
Pressure: 30.05"   Gusts: NA
Location:  38.39°N, 118.11°W
Report Text: KTPH 211956Z AUTO 34015KT 10SM CLR 18/M11 A3005 RMK AO2 SLP128 T01781106
Loading
Personal Weather Stations






























Interactive Weather Map
Tropical Storm Tracking
New forecast layout! Learn more

10-Day Weather Forecast

Advertisements
Track Severe Weather on mobile